This is the latest recevied weather packets stored in our database for station/object WK7G. If no packets are shown the sender has not sent any weather packets the latest 10 day(s).
| Time | Temp. | Humidity | Pressure | Rain* | Wind** | Luminosity | Snow |
|---|---|---|---|---|---|---|---|
| 1777693163 | 7.22° C | 49% | 1014.6 hPa | 0 mm | - | 0 W/m² | - |
| 1777692860 | 6.67° C | 50% | 1014.6 hPa | 0 mm | - | 0 W/m² | - |
| 1777692557 | 7.22° C | 48% | 1014.3 hPa | 0 mm | - | 0 W/m² | - |
| 1777692253 | 7.22° C | 48% | 1014.3 hPa | 0 mm | - | 0 W/m² | - |
| 1777691950 | 6.67° C | 51% | 1014.2 hPa | 0 mm | - | 0 W/m² | - |
| 1777691649 | 7.78° C | 47% | 1014 hPa | 0 mm | - | 0 W/m² | - |
| 1777691347 | 6.67° C | 51% | 1014.1 hPa | 0 mm | - | 0 W/m² | - |
| 1777691045 | 6.67° C | 55% | 1013.9 hPa | 0 mm | - | 0 W/m² | - |
| 1777690742 | 7.78° C | 52% | 1013.9 hPa | 0 mm | - | 0 W/m² | - |
| 1777690439 | 6.67° C | 52% | 1013.7 hPa | 0 mm | - | 0 W/m² | - |
| 1777690137 | 6.67° C | 51% | 1014 hPa | 0 mm | - | 0 W/m² | - |
| 1777689834 | 6.11° C | 59% | 1013.7 hPa | 0 mm | - | 0 W/m² | - |
| 1777689532 | 7.22° C | 54% | 1013.4 hPa | 0 mm | - | 0 W/m² | - |
| 1777689230 | 7.22° C | 52% | 1013.5 hPa | 0 mm | - | 0 W/m² | - |
| 1777688927 | 7.22° C | 55% | 1013.4 hPa | 0 mm | - | 2 W/m² | - |
| 1777688623 | 8.33° C | 53% | 1013.6 hPa | 0 mm | - | 4 W/m² | - |
| 1777688018 | 10.56° C | 46% | 1013.4 hPa | 0 mm | - | 10 W/m² | - |
| 1777687715 | 11.67° C | 46% | 1013.5 hPa | 0 mm | - | 12 W/m² | - |
| 1777674381 | 16.11° C | 27% | 1013.6 hPa | 0 mm | - | 559 W/m² | - |
| 1777674079 | 16.67° C | 23% | 1013.6 hPa | 0 mm | - | 577 W/m² | - |
| 1777673775 | 16.11° C | 30% | 1013.7 hPa | 0 mm | - | 586 W/m² | - |
| 1777673171 | 16.67° C | 26% | 1013.7 hPa | 0 mm | - | 601 W/m² | - |
| 1777672564 | 16.11° C | 24% | 1014 hPa | 0 mm | - | 616 W/m² | - |
| 1777671954 | 15.56° C | 25% | 1014 hPa | 0 mm | - | 635 W/m² | - |
| 1777671347 | 15° C | 24% | 1014.5 hPa | 0 mm | - | 620 W/m² | - |
* Rain latest hour (hover to see other rain measurements)
** Current wind speed in m/s (hover to see current wind gust speed)